Time,TemperatureF,DewpointF,PressureIn,WindDirection,WindDirectionDegrees,WindSpeedMPH,WindSpeedGustMPH,Humidity,HourlyPrecipIn,Conditions,Clouds,dailyrainin,SoftwareType,DateUTC
2013-04-25 00:00:00,43.6,33.7,30.12,NW,306,0.0,0.0,68,0.00,,,0.00,Wunderground v.1.15,2013-04-25 05:00:00,
2013-04-25 00:05:00,43.8,33.9,30.13,West,281,0.0,0.0,68,0.00,,,0.00,Wunderground v.1.15,2013-04-25 05:05:00,
2013-04-25 00:10:00,44.3,34.4,30.13,West,261,0.0,0.0,68,0.00,,,0.00,Wunderground v.1.15,2013-04-25 05:10:00,
2013-04-25 00:15:00,45.1,34.4,30.13,WSW,246,0.0,0.0,66,0.00,,,0.00,Wunderground v.1.15,2013-04-25 05:15:00,
2013-04-25 00:25:00,44.8,34.1,30.13,WSW,246,0.0,0.0,66,0.00,,,0.00,Wunderground v.1.15,2013-04-25 05:25:00,
2013-04-25 00:35:00,43.9,33.3,30.13,WSW,246,0.0,0.0,66,0.00,,,0.00,Wunderground v.1.15,2013-04-25 05:35:00,
2013-04-25 00:45:00,43.2,33.0,30.13,WSW,246,0.0,0.0,67,0.00,,,0.00,Wunderground v.1.15,2013-04-25 05:45:00,
2013-04-25 00:50:00,42.9,33.1,30.14,WSW,246,0.0,0.0,68,0.00,,,0.00,Wunderground v.1.15,2013-04-25 05:50:00,
2013-04-25 01:00:00,42.2,32.4,30.14,WSW,246,0.0,0.0,68,0.00,,,0.00,Wunderground v.1.15,2013-04-25 06:00:00,
2013-04-25 01:10:00,42.5,32.7,30.14,NW,309,0.0,0.0,68,0.00,,,0.00,Wunderground v.1.15,2013-04-25 06:10:00,
2013-04-25 01:15:00,42.5,32.7,30.14,NW,309,0.0,0.0,68,0.00,,,0.00,Wunderground v.1.15,2013-04-25 06:15:00,
2013-04-25 01:25:00,42.2,32.4,30.14,NW,309,0.0,0.0,68,0.00,,,0.00,Wunderground v.1.15,2013-04-25 06:25:00,
2013-04-25 01:30:00,42.6,32.4,30.14,NNW,328,0.0,0.0,67,0.00,,,0.00,Wunderground v.1.15,2013-04-25 06:30:00,
2013-04-25 01:40:00,42.9,32.7,30.14,NW,322,0.0,0.0,67,0.00,,,0.00,Wunderground v.1.15,2013-04-25 06:40:00,
2013-04-25 01:50:00,42.2,32.0,30.15,NW,306,0.0,0.0,67,0.00,,,0.00,Wunderground v.1.15,2013-04-25 06:50:00,
2013-04-25 02:00:00,41.8,31.6,30.15,NW,312,0.0,0.0,67,0.00,,,0.00,Wunderground v.1.15,2013-04-25 07:00:00,
2013-04-25 02:05:00,41.9,31.7,30.15,NNW,329,0.0,0.0,67,0.00,,,0.00,Wunderground v.1.15,2013-04-25 07:05:00,
2013-04-25 02:15:00,41.8,31.6,30.15,NNW,339,0.0,0.0,67,0.00,,,0.00,Wunderground v.1.15,2013-04-25 07:15:00,
2013-04-25 02:20:00,41.6,31.4,30.14,NNW,339,0.0,0.0,67,0.00,,,0.00,Wunderground v.1.15,2013-04-25 07:20:00,
2013-04-25 02:30:00,41.5,31.4,30.14,NNW,339,0.0,0.0,67,0.00,,,0.00,Wunderground v.1.15,2013-04-25 07:30:00,
2013-04-25 02:40:00,41.3,31.5,30.14,NNW,339,0.0,0.0,68,0.00,,,0.00,Wunderground v.1.15,2013-04-25 07:40:00,
2013-04-25 02:45:00,41.2,31.4,30.14,NNW,339,0.0,0.0,68,0.00,,,0.00,Wunderground v.1.15,2013-04-25 07:45:00,
2013-04-25 02:55:00,41.5,31.7,30.14,NNW,339,0.0,0.0,68,0.00,,,0.00,Wunderground v.1.15,2013-04-25 07:55:00,
2013-04-25 03:05:00,41.2,31.1,30.14,NNW,337,0.0,0.0,67,0.00,,,0.00,Wunderground v.1.15,2013-04-25 08:05:00,
2013-04-25 03:10:00,41.5,31.7,30.14,NNW,337,0.0,0.0,68,0.00,,,0.00,Wunderground v.1.15,2013-04-25 08:10:00,
2013-04-25 03:20:00,41.3,31.2,30.14,NNW,336,0.0,0.0,67,0.00,,,0.00,Wunderground v.1.15,2013-04-25 08:20:00,
2013-04-25 03:30:00,41.3,31.5,30.14,NNW,336,0.0,0.0,68,0.00,,,0.00,Wunderground v.1.15,2013-04-25 08:30:00,
2013-04-25 03:40:00,41.3,31.5,30.14,NNW,336,0.0,0.0,68,0.00,,,0.00,Wunderground v.1.15,2013-04-25 08:40:00,
2013-04-25 03:45:00,41.3,31.5,30.14,NNW,336,0.0,0.0,68,0.00,,,0.00,Wunderground v.1.15,2013-04-25 08:45:00,
2013-04-25 03:55:00,40.6,30.9,30.14,NNW,335,0.0,0.0,68,0.00,,,0.00,Wunderground v.1.15,2013-04-25 08:55:00,
2013-04-25 04:00:00,40.1,30.7,30.14,NNW,328,0.0,0.0,69,0.00,,,0.00,Wunderground v.1.15,2013-04-25 09:00:00,
2013-04-25 04:10:00,39.5,30.5,30.14,NNW,328,0.0,0.0,70,0.00,,,0.00,Wunderground v.1.15,2013-04-25 09:10:00,
2013-04-25 04:20:00,39.3,30.7,30.14,NNW,328,0.0,0.0,71,0.00,,,0.00,Wunderground v.1.15,2013-04-25 09:20:00,
2013-04-25 04:25:00,39.8,31.2,30.14,NNW,328,0.0,0.0,71,0.00,,,0.00,Wunderground v.1.15,2013-04-25 09:25:00,
2013-04-25 04:35:00,41.6,31.8,30.14,WNW,302,0.0,0.0,68,0.00,,,0.00,Wunderground v.1.15,2013-04-25 09:35:00,
2013-04-25 04:45:00,41.2,31.4,30.14,WNW,302,0.0,0.0,68,0.00,,,0.00,Wunderground v.1.15,2013-04-25 09:45:00,
2013-04-25 04:55:00,40.1,30.7,30.14,WNW,302,0.0,0.0,69,0.00,,,0.00,Wunderground v.1.15,2013-04-25 09:55:00,
2013-04-25 05:00:00,39.6,30.6,30.14,WNW,302,0.0,0.0,70,0.00,,,0.00,Wunderground v.1.15,2013-04-25 10:00:00,
2013-04-25 05:10:00,39.1,30.5,30.14,WNW,301,0.0,0.0,71,0.00,,,0.00,Wunderground v.1.15,2013-04-25 10:10:00,
2013-04-25 05:20:00,38.6,30.4,30.14,West,281,0.0,0.0,72,0.00,,,0.00,Wunderground v.1.15,2013-04-25 10:20:00,
2013-04-25 05:30:00,37.9,29.7,30.14,SSW,199,0.0,0.0,72,0.00,,,0.00,Wunderground v.1.15,2013-04-25 10:30:00,
2013-04-25 05:35:00,37.8,29.9,30.15,SSW,198,0.0,0.0,73,0.00,,,0.00,Wunderground v.1.15,2013-04-25 10:35:00,
2013-04-25 05:45:00,37.9,30.0,30.15,SSW,195,0.0,0.0,73,0.00,,,0.00,Wunderground v.1.15,2013-04-25 10:45:00,
2013-04-25 05:55:00,37.8,29.9,30.14,SSW,193,0.0,0.0,73,0.00,,,0.00,Wunderground v.1.15,2013-04-25 10:55:00,
2013-04-25 06:05:00,37.9,30.0,30.15,South,189,0.0,0.0,73,0.00,,,0.00,Wunderground v.1.15,2013-04-25 11:05:00,
2013-04-25 06:10:00,37.8,29.9,30.15,South,186,0.0,0.0,73,0.00,,,0.00,Wunderground v.1.15,2013-04-25 11:10:00,
2013-04-25 06:20:00,36.8,29.6,30.15,South,185,0.0,0.0,75,0.00,,,0.00,Wunderground v.1.15,2013-04-25 11:20:00,
2013-04-25 06:30:00,36.5,29.3,30.15,South,185,0.0,0.0,75,0.00,,,0.00,Wunderground v.1.15,2013-04-25 11:30:00,
2013-04-25 06:40:00,36.2,29.4,30.16,South,182,0.0,0.0,76,0.00,,,0.00,Wunderground v.1.15,2013-04-25 11:40:00,
2013-04-25 06:45:00,36.0,29.5,30.16,SSW,196,0.0,0.0,77,0.00,,,0.00,Wunderground v.1.15,2013-04-25 11:45:00,
2013-04-25 06:55:00,36.2,29.7,30.17,SSW,202,0.0,0.0,77,0.00,,,0.00,Wunderground v.1.15,2013-04-25 11:55:00,
2013-04-25 07:05:00,36.2,30.0,30.17,SSW,196,0.0,0.0,78,0.00,,,0.00,Wunderground v.1.15,2013-04-25 12:05:00,
2013-04-25 07:15:00,36.3,29.8,30.17,SSW,199,0.0,0.0,77,0.00,,,0.00,Wunderground v.1.15,2013-04-25 12:15:00,
2013-04-25 07:20:00,36.5,30.0,30.17,SSW,192,0.0,0.0,77,0.00,,,0.00,Wunderground v.1.15,2013-04-25 12:20:00,
2013-04-25 07:30:00,37.5,30.9,30.17,SSW,199,0.0,0.0,77,0.00,,,0.00,Wunderground v.1.15,2013-04-25 12:30:00,
2013-04-25 07:40:00,38.6,32.0,30.18,SSW,199,0.0,0.0,77,0.00,,,0.00,Wunderground v.1.15,2013-04-25 12:40:00,
2013-04-25 07:50:00,39.8,32.8,30.18,SSW,192,0.0,0.0,76,0.00,,,0.00,Wunderground v.1.15,2013-04-25 12:50:00,
2013-04-25 08:00:00,41.1,33.8,30.18,SSW,209,0.0,0.0,75,0.00,,,0.00,Wunderground v.1.15,2013-04-25 13:00:00,
2013-04-25 08:10:00,42.5,35.1,30.18,SW,223,0.0,0.0,75,0.00,,,0.00,Wunderground v.1.15,2013-04-25 13:10:00,
2013-04-25 08:15:00,42.8,34.7,30.18,SSW,210,0.0,0.0,73,0.00,,,0.00,Wunderground v.1.15,2013-04-25 13:15:00,
2013-04-25 08:25:00,43.8,35.0,30.18,SSW,212,0.0,0.0,71,0.00,,,0.00,Wunderground v.1.15,2013-04-25 13:25:00,
2013-04-25 08:35:00,43.9,35.5,30.18,SSW,200,0.0,0.0,72,0.00,,,0.00,Wunderground v.1.15,2013-04-25 13:35:00,
2013-04-25 08:45:00,44.6,35.4,30.18,SSW,212,0.0,0.0,70,0.00,,,0.00,Wunderground v.1.15,2013-04-25 13:45:00,
2013-04-25 08:55:00,45.5,36.3,30.18,SSW,195,0.0,0.0,70,0.00,,,0.00,Wunderground v.1.15,2013-04-25 13:55:00,
2013-04-25 09:00:00,46.2,36.6,30.18,SSW,209,0.0,0.0,69,0.00,,,0.00,Wunderground v.1.15,2013-04-25 14:00:00,
2013-04-25 09:10:00,47.3,37.3,30.19,SSW,205,0.0,0.0,68,0.00,,,0.00,Wunderground v.1.15,2013-04-25 14:10:00,
2013-04-25 09:20:00,48.3,37.1,30.18,SW,226,0.0,0.0,65,0.00,,,0.00,Wunderground v.1.15,2013-04-25 14:20:00,
2013-04-25 09:25:00,48.9,36.9,30.18,SSW,193,0.0,0.0,63,0.00,,,0.00,Wunderground v.1.15,2013-04-25 14:25:00,
2013-04-25 09:35:00,49.9,36.6,30.18,WSW,240,0.0,0.0,60,0.00,,,0.00,Wunderground v.1.15,2013-04-25 14:35:00,
2013-04-25 09:45:00,50.8,35.2,30.18,SW,215,0.0,0.0,55,0.00,,,0.00,Wunderground v.1.15,2013-04-25 14:45:00,
2013-04-25 09:55:00,51.9,36.2,30.18,SSW,202,0.0,0.0,55,0.00,,,0.00,Wunderground v.1.15,2013-04-25 14:55:00,
2013-04-25 10:00:00,52.2,36.5,30.18,SW,217,0.0,0.0,55,0.00,,,0.00,Wunderground v.1.15,2013-04-25 15:00:00,
2013-04-25 10:10:00,52.9,36.2,30.18,SSW,206,0.0,0.0,53,0.00,,,0.00,Wunderground v.1.15,2013-04-25 15:10:00,
2013-04-25 10:15:00,53.3,35.1,30.18,SW,217,0.0,0.0,50,0.00,,,0.00,Wunderground v.1.15,2013-04-25 15:15:00,
2013-04-25 10:25:00,53.8,34.6,30.17,SSW,208,0.0,0.0,48,0.00,,,0.00,Wunderground v.1.15,2013-04-25 15:25:00,
2013-04-25 10:35:00,54.4,31.8,30.17,WNW,299,0.0,0.0,42,0.00,,,0.00,Wunderground v.1.15,2013-04-25 15:35:00,
2013-04-25 10:45:00,55.0,31.7,30.17,West,274,0.0,0.0,41,0.00,,,0.00,Wunderground v.1.15,2013-04-25 15:45:00,
2013-04-25 10:50:00,55.1,29.3,30.17,SW,227,0.0,0.0,37,0.00,,,0.00,Wunderground v.1.15,2013-04-25 15:50:00,
2013-04-25 11:00:00,55.3,27.4,30.17,WNW,292,0.0,0.0,34,0.00,,,0.00,Wunderground v.1.15,2013-04-25 16:00:00,
2013-04-25 11:10:00,56.2,28.2,30.17,WSW,246,0.0,0.0,34,0.00,,,0.00,Wunderground v.1.15,2013-04-25 16:10:00,
2013-04-25 11:20:00,56.7,27.1,30.17,South,181,0.0,0.0,32,0.00,,,0.00,Wunderground v.1.15,2013-04-25 16:20:00,
2013-04-25 11:25:00,57.6,27.9,30.17,South,182,0.0,0.0,32,0.00,,,0.00,Wunderground v.1.15,2013-04-25 16:25:00,
2013-04-25 11:35:00,58.1,27.6,30.17,SSE,165,0.0,0.0,31,0.00,,,0.00,Wunderground v.1.15,2013-04-25 16:35:00,
2013-04-25 11:45:00,59.0,31.4,30.17,WNW,289,0.0,0.0,35,0.00,,,0.00,Wunderground v.1.15,2013-04-25 16:45:00,
2013-04-25 11:55:00,58.0,26.7,30.16,SSW,208,0.0,0.0,30,0.00,,,0.00,Wunderground v.1.15,2013-04-25 16:55:00,
2013-04-25 12:00:00,58.1,27.6,30.16,SE,127,0.0,0.0,31,0.00,,,0.00,Wunderground v.1.15,2013-04-25 17:00:00,
2013-04-25 12:10:00,59.8,29.1,30.16,SW,220,0.0,0.0,31,0.00,,,0.00,Wunderground v.1.15,2013-04-25 17:10:00,
2013-04-25 12:20:00,59.5,28.0,30.16,SE,141,0.0,0.0,30,0.00,,,0.00,Wunderground v.1.15,2013-04-25 17:20:00,
2013-04-25 12:30:00,60.5,27.2,30.16,SE,136,0.0,0.0,28,0.00,,,0.00,Wunderground v.1.15,2013-04-25 17:30:00,
2013-04-25 12:35:00,61.6,29.0,30.15,SSE,165,0.0,0.0,29,0.00,,,0.00,Wunderground v.1.15,2013-04-25 17:35:00,
2013-04-25 12:45:00,60.4,27.1,30.15,South,178,0.0,0.0,28,0.00,,,0.00,Wunderground v.1.15,2013-04-25 17:45:00,
2013-04-25 12:55:00,60.5,28.1,30.15,SSW,206,0.0,0.0,29,0.00,,,0.00,Wunderground v.1.15,2013-04-25 17:55:00,
2013-04-25 13:05:00,60.1,28.5,30.14,South,186,0.0,0.0,30,0.00,,,0.00,Wunderground v.1.15,2013-04-25 18:05:00,
2013-04-25 13:15:00,60.9,30.0,30.14,South,174,0.0,0.0,31,0.00,,,0.00,Wunderground v.1.15,2013-04-25 18:15:00,
2013-04-25 13:25:00,61.8,29.2,30.14,ESE,120,0.0,0.0,29,0.00,,,0.00,Wunderground v.1.15,2013-04-25 18:25:00,
2013-04-25 13:30:00,62.4,29.7,30.14,SSE,165,0.0,0.0,29,0.00,,,0.00,Wunderground v.1.15,2013-04-25 18:30:00,
2013-04-25 13:40:00,62.0,31.8,30.13,SSE,165,0.0,0.0,32,0.00,,,0.00,Wunderground v.1.15,2013-04-25 18:40:00,
2013-04-25 13:45:00,62.3,31.3,30.13,SSW,200,0.0,0.0,31,0.00,,,0.00,Wunderground v.1.15,2013-04-25 18:45:00,
2013-04-25 13:55:00,62.6,30.7,30.12,SE,136,0.0,0.0,30,0.00,,,0.00,Wunderground v.1.15,2013-04-25 18:55:00,
2013-04-25 14:05:00,62.9,32.6,30.11,South,186,0.0,0.0,32,0.00,,,0.00,Wunderground v.1.15,2013-04-25 19:05:00,
2013-04-25 14:15:00,63.4,33.8,30.11,South,176,0.0,0.0,33,0.00,,,0.00,Wunderground v.1.15,2013-04-25 19:15:00,
2013-04-25 14:20:00,63.5,32.3,30.10,SSW,196,0.0,0.0,31,0.00,,,0.00,Wunderground v.1.15,2013-04-25 19:20:00,
2013-04-25 14:30:00,64.5,34.0,30.10,South,191,0.0,0.0,32,0.00,,,0.00,Wunderground v.1.15,2013-04-25 19:30:00,
2013-04-25 14:40:00,64.3,31.3,30.09,SSW,199,0.0,0.0,29,0.00,,,0.00,Wunderground v.1.15,2013-04-25 19:40:00,
2013-04-25 14:50:00,64.8,33.4,30.08,South,191,0.0,0.0,31,0.00,,,0.00,Wunderground v.1.15,2013-04-25 19:50:00,
2013-04-25 15:00:00,65.0,33.6,30.08,SSW,205,0.0,0.0,31,0.00,,,0.00,Wunderground v.1.15,2013-04-25 20:00:00,
2013-04-25 15:10:00,64.8,31.8,30.07,South,175,0.0,0.0,29,0.00,,,0.00,Wunderground v.1.15,2013-04-25 20:10:00,
2013-04-25 15:15:00,64.8,33.4,30.07,South,191,0.0,0.0,31,0.00,,,0.00,Wunderground v.1.15,2013-04-25 20:15:00,
2013-04-25 15:25:00,65.8,33.5,30.07,South,169,0.0,0.0,30,0.00,,,0.00,Wunderground v.1.15,2013-04-25 20:25:00,
2013-04-25 15:35:00,65.8,32.6,30.06,SSW,192,0.0,0.0,29,0.00,,,0.00,Wunderground v.1.15,2013-04-25 20:35:00,
2013-04-25 15:45:00,66.3,32.2,30.06,SSW,209,0.0,0.0,28,0.00,,,0.00,Wunderground v.1.15,2013-04-25 20:45:00,
2013-04-25 15:55:00,66.1,33.7,30.06,South,172,0.0,0.0,30,0.00,,,0.00,Wunderground v.1.15,2013-04-25 20:55:00,
2013-04-25 16:05:00,66.4,33.2,30.05,South,181,0.0,0.0,29,0.00,,,0.00,Wunderground v.1.15,2013-04-25 21:05:00,
2013-04-25 16:10:00,66.8,33.5,30.05,SSW,202,0.0,0.0,29,0.00,,,0.00,Wunderground v.1.15,2013-04-25 21:10:00,
2013-04-25 16:20:00,67.6,33.3,30.04,SSW,202,0.0,0.0,28,0.00,,,0.00,Wunderground v.1.15,2013-04-25 21:20:00,
2013-04-25 16:30:00,67.6,35.0,30.04,SSW,192,0.0,0.0,30,0.00,,,0.00,Wunderground v.1.15,2013-04-25 21:30:00,
2013-04-25 16:35:00,67.4,32.2,30.03,South,174,0.0,0.0,27,0.00,,,0.00,Wunderground v.1.15,2013-04-25 21:35:00,
2013-04-25 16:45:00,67.6,33.3,30.03,SSW,198,0.0,0.0,28,0.00,,,0.00,Wunderground v.1.15,2013-04-25 21:45:00,
2013-04-25 16:55:00,67.6,33.3,30.02,South,191,0.0,0.0,28,0.00,,,0.00,Wunderground v.1.15,2013-04-25 21:55:00,
2013-04-25 17:00:00,67.6,33.3,30.02,SSW,208,0.0,0.0,28,0.00,,,0.00,Wunderground v.1.15,2013-04-25 22:00:00,
2013-04-25 17:10:00,67.8,33.5,30.01,SSW,209,0.0,0.0,28,0.00,,,0.00,Wunderground v.1.15,2013-04-25 22:10:00,
2013-04-25 17:15:00,67.9,33.6,30.01,South,182,0.0,0.0,28,0.00,,,0.00,Wunderground v.1.15,2013-04-25 22:15:00,
2013-04-25 17:25:00,68.3,33.9,30.01,SW,233,0.0,0.0,28,0.00,,,0.00,Wunderground v.1.15,2013-04-25 22:25:00,
2013-04-25 17:35:00,68.3,33.9,30.01,SSW,203,0.0,0.0,28,0.00,,,0.00,Wunderground v.1.15,2013-04-25 22:35:00,
2013-04-25 17:45:00,67.6,32.4,30.01,SSW,198,0.0,0.0,27,0.00,,,0.00,Wunderground v.1.15,2013-04-25 22:45:00,
2013-04-25 17:50:00,67.4,33.1,30.01,South,186,0.0,0.0,28,0.00,,,0.00,Wunderground v.1.15,2013-04-25 22:50:00,
2013-04-25 18:00:00,67.9,33.6,30.01,SSE,168,0.0,0.0,28,0.00,,,0.00,Wunderground v.1.15,2013-04-25 23:00:00,
2013-04-25 18:10:00,67.8,33.5,30.00,South,181,0.0,0.0,28,0.00,,,0.00,Wunderground v.1.15,2013-04-25 23:10:00,
2013-04-25 18:15:00,67.6,32.4,30.00,SSW,195,0.0,0.0,27,0.00,,,0.00,Wunderground v.1.15,2013-04-25 23:15:00,
2013-04-25 18:25:00,67.1,32.9,30.00,SSE,160,0.0,0.0,28,0.00,,,0.00,Wunderground v.1.15,2013-04-25 23:25:00,
2013-04-25 18:35:00,66.9,32.7,29.99,SSE,162,0.0,0.0,28,0.00,,,0.00,Wunderground v.1.15,2013-04-25 23:35:00,
2013-04-25 18:40:00,66.6,32.5,29.99,SSE,162,0.0,0.0,28,0.00,,,0.00,Wunderground v.1.15,2013-04-25 23:40:00,
2013-04-25 18:50:00,66.3,33.9,29.99,SSE,161,0.0,0.0,30,0.00,,,0.00,Wunderground v.1.15,2013-04-25 23:50:00,
2013-04-25 19:00:00,65.6,34.1,29.99,South,181,0.0,0.0,31,0.00,,,0.00,Wunderground v.1.15,2013-04-26 00:00:00,
2013-04-25 19:05:00,65.5,34.0,29.98,South,175,0.0,0.0,31,0.00,,,0.00,Wunderground v.1.15,2013-04-26 00:05:00,
2013-04-25 19:15:00,65.0,34.4,29.98,SSE,148,0.0,0.0,32,0.00,,,0.00,Wunderground v.1.15,2013-04-26 00:15:00,
2013-04-25 19:25:00,64.5,35.5,29.98,SSE,154,0.0,0.0,34,0.00,,,0.00,Wunderground v.1.15,2013-04-26 00:25:00,
2013-04-25 19:30:00,64.3,34.6,29.98,South,181,0.0,0.0,33,0.00,,,0.00,Wunderground v.1.15,2013-04-26 00:30:00,
2013-04-25 19:40:00,63.7,35.5,29.98,SSE,148,0.0,0.0,35,0.00,,,0.00,Wunderground v.1.15,2013-04-26 00:40:00,
2013-04-25 19:50:00,62.9,35.5,29.98,SSE,148,0.0,0.0,36,0.00,,,0.00,Wunderground v.1.15,2013-04-26 00:50:00,
2013-04-25 20:00:00,62.3,36.4,29.98,SSE,151,0.0,0.0,38,0.00,,,0.00,Wunderground v.1.15,2013-04-26 01:00:00,
2013-04-25 20:10:00,62.0,36.1,29.98,SSE,168,0.0,0.0,38,0.00,,,0.00,Wunderground v.1.15,2013-04-26 01:10:00,
2013-04-25 20:15:00,61.6,36.4,29.98,SSE,151,0.0,0.0,39,0.00,,,0.00,Wunderground v.1.15,2013-04-26 01:15:00,
2013-04-25 20:25:00,61.2,36.7,29.97,South,172,0.0,0.0,40,0.00,,,0.00,Wunderground v.1.15,2013-04-26 01:25:00,
2013-04-25 20:35:00,61.0,36.5,29.97,SSE,168,0.0,0.0,40,0.00,,,0.00,Wunderground v.1.15,2013-04-26 01:35:00,
2013-04-25 20:45:00,60.4,37.2,29.97,SSE,161,0.0,0.0,42,0.00,,,0.00,Wunderground v.1.15,2013-04-26 01:45:00,
2013-04-25 20:50:00,60.2,37.6,29.98,South,175,0.0,0.0,43,0.00,,,0.00,Wunderground v.1.15,2013-04-26 01:50:00,
2013-04-25 21:00:00,59.9,38.5,29.98,SSW,199,0.0,0.0,45,0.00,,,0.00,Wunderground v.1.15,2013-04-26 02:00:00,
2013-04-25 21:10:00,59.9,39.1,29.99,SSE,151,0.0,0.0,46,0.00,,,0.00,Wunderground v.1.15,2013-04-26 02:10:00,
2013-04-25 21:15:00,59.6,39.3,29.99,SSE,155,0.0,0.0,47,0.00,,,0.00,Wunderground v.1.15,2013-04-26 02:15:00,
2013-04-25 21:25:00,59.3,39.1,29.99,SE,144,0.0,0.0,47,0.00,,,0.00,Wunderground v.1.15,2013-04-26 02:25:00,
2013-04-25 21:35:00,59.3,38.5,29.99,SE,137,0.0,0.0,46,0.00,,,0.00,Wunderground v.1.15,2013-04-26 02:35:00,
2013-04-25 21:45:00,59.2,39.0,29.99,SSE,155,0.0,0.0,47,0.00,,,0.00,Wunderground v.1.15,2013-04-26 02:45:00,
2013-04-25 21:55:00,58.9,38.7,29.99,SSE,167,0.0,0.0,47,0.00,,,0.00,Wunderground v.1.15,2013-04-26 02:55:00,
2013-04-25 22:00:00,58.9,38.7,29.99,SE,140,0.0,0.0,47,0.00,,,0.00,Wunderground v.1.15,2013-04-26 03:00:00,
2013-04-25 22:10:00,58.7,39.0,30.00,SSE,152,0.0,0.0,48,0.00,,,0.00,Wunderground v.1.15,2013-04-26 03:10:00,
2013-04-25 22:20:00,58.7,39.0,30.00,South,174,0.0,0.0,48,0.00,,,0.00,Wunderground v.1.15,2013-04-26 03:20:00,
2013-04-25 22:30:00,58.7,38.5,30.00,SE,141,0.0,0.0,47,0.00,,,0.00,Wunderground v.1.15,2013-04-26 03:30:00,
2013-04-25 22:40:00,58.6,39.0,30.00,South,169,0.0,0.0,48,0.00,,,0.00,Wunderground v.1.15,2013-04-26 03:40:00,
2013-04-25 22:45:00,58.6,39.0,30.00,SSE,157,0.0,0.0,48,0.00,,,0.00,Wunderground v.1.15,2013-04-26 03:45:00,
2013-04-25 22:55:00,58.6,38.4,30.00,SE,145,0.0,0.0,47,0.00,,,0.00,Wunderground v.1.15,2013-04-26 03:55:00,
2013-04-25 23:05:00,58.4,38.2,30.00,SSE,154,0.0,0.0,47,0.00,,,0.00,Wunderground v.1.15,2013-04-26 04:05:00,
2013-04-25 23:10:00,58.3,38.7,30.00,SSE,158,0.0,0.0,48,0.00,,,0.00,Wunderground v.1.15,2013-04-26 04:10:00,
2013-04-25 23:15:00,58.3,38.7,30.00,SSE,157,0.0,0.0,48,0.00,,,0.00,Wunderground v.1.15,2013-04-26 04:15:00,
2013-04-25 23:20:00,58.1,38.5,30.00,SSE,162,0.0,0.0,48,0.00,,,0.00,Wunderground v.1.15,2013-04-26 04:20:00,
2013-04-25 23:30:00,57.6,38.0,30.00,SSE,151,0.0,0.0,48,0.00,,,0.00,Wunderground v.1.15,2013-04-26 04:30:00,
2013-04-25 23:35:00,57.6,38.6,30.00,SSE,152,0.0,0.0,49,0.00,,,0.00,Wunderground v.1.15,2013-04-26 04:35:00,
2013-04-25 23:40:00,57.5,38.5,30.00,SSE,152,0.0,0.0,49,0.00,,,0.00,Wunderground v.1.15,2013-04-26 04:40:00,
2013-04-25 23:55:00,56.9,38.4,30.00,SSE,155,0.0,0.0,50,0.00,,,0.00,Wunderground v.1.15,2013-04-26 04:55:00,